6 Max
5 km/h
3 Mini

LFMY 261930Z AUTO VRB02KT 7000 NSC 18/16 Q1019

TAF LFMY 241305Z 2413/2509 CNL